createdAt,value
2019-04-01T00:01:22.321Z,9.17
2019-04-01T00:03:50.939Z,9.10
2019-04-01T00:06:19.586Z,9.11
2019-04-01T00:08:48.246Z,9.01
2019-04-01T00:11:16.936Z,9.00
2019-04-01T00:13:45.956Z,9.02
2019-04-01T00:16:14.567Z,8.92
2019-04-01T00:18:43.191Z,8.90
2019-04-01T00:21:11.960Z,8.90
2019-04-01T00:23:40.751Z,8.85
2019-04-01T00:26:09.535Z,8.82
2019-04-01T00:28:38.300Z,8.86
2019-04-01T00:31:06.998Z,8.86
2019-04-01T00:33:35.720Z,8.84
2019-04-01T00:36:04.364Z,8.87
2019-04-01T00:38:33.011Z,8.86
2019-04-01T00:41:01.825Z,8.86
2019-04-01T00:44:01.288Z,8.63
2019-04-01T00:46:33.128Z,8.60
2019-04-01T00:49:01.752Z,8.62
2019-04-01T00:51:30.438Z,8.62
2019-04-01T00:53:59.064Z,8.52
2019-04-01T00:56:27.699Z,8.47
2019-04-01T00:58:56.332Z,8.49
2019-04-01T01:01:24.955Z,8.56
2019-04-01T01:03:53.584Z,8.52
2019-04-01T01:06:22.224Z,8.47
2019-04-01T01:08:50.857Z,8.47
2019-04-01T01:11:19.498Z,8.43
2019-04-01T01:13:48.152Z,8.29
2019-04-01T01:16:16.799Z,8.40
2019-04-01T01:18:45.493Z,8.43
2019-04-01T01:21:14.284Z,8.46
2019-04-01T01:23:42.901Z,8.42
2019-04-01T01:26:11.582Z,8.37
2019-04-01T01:28:40.194Z,8.36
2019-04-01T01:31:08.852Z,8.27
2019-04-01T01:33:37.468Z,8.33
2019-04-01T01:36:06.188Z,8.27
2019-04-01T01:38:35.992Z,8.21
2019-04-01T01:41:04.752Z,8.23
2019-04-01T01:43:33.396Z,8.15
2019-04-01T01:46:02.099Z,8.08
2019-04-01T01:48:30.709Z,8.09
2019-04-01T01:50:59.369Z,8.01
2019-04-01T01:53:27.977Z,8.07
2019-04-01T01:55:56.625Z,7.99
2019-04-01T01:58:25.328Z,8.00
2019-04-01T02:00:55.688Z,8.03
2019-04-01T02:03:24.345Z,7.99
2019-04-01T02:05:53.045Z,7.96
2019-04-01T02:08:21.682Z,7.92
2019-04-01T02:10:50.302Z,7.95
2019-04-01T02:13:20.075Z,7.82
2019-04-01T02:15:49.069Z,7.78
2019-04-01T02:18:17.788Z,7.75
2019-04-01T02:20:46.424Z,7.67
2019-04-01T02:23:15.045Z,7.65
2019-04-01T02:25:43.665Z,7.68
2019-04-01T02:28:12.410Z,7.68
2019-04-01T02:30:41.033Z,7.76
2019-04-01T02:33:09.693Z,7.63
2019-04-01T02:35:38.302Z,7.65
2019-04-01T02:38:06.977Z,7.63
2019-04-01T02:40:35.985Z,7.70
2019-04-01T02:43:04.696Z,7.66
2019-04-01T02:45:33.731Z,7.69
2019-04-01T02:48:02.390Z,7.66
2019-04-01T02:50:31.028Z,7.74
2019-04-01T02:52:59.863Z,7.80
2019-04-01T02:55:28.659Z,7.84
2019-04-01T02:57:57.800Z,7.72
2019-04-01T03:00:26.525Z,7.75
2019-04-01T03:02:55.263Z,7.78
2019-04-01T03:05:24.214Z,7.69
2019-04-01T03:07:53.037Z,7.71
2019-04-01T03:10:21.739Z,7.74
2019-04-01T03:12:50.377Z,7.65
2019-04-01T03:15:19.110Z,7.58
2019-04-01T03:17:47.715Z,7.67
2019-04-01T03:20:16.352Z,7.59
2019-04-01T03:22:44.997Z,7.52
2019-04-01T03:25:13.691Z,7.60
2019-04-01T03:27:42.308Z,7.56
2019-04-01T03:30:11.308Z,7.58
2019-04-01T03:32:44.626Z,7.52
2019-04-01T03:35:10.548Z,7.57
2019-04-01T03:37:39.331Z,7.50
2019-04-01T03:40:08.142Z,7.45
2019-04-01T03:42:36.893Z,7.42
2019-04-01T03:45:05.810Z,7.40
2019-04-01T03:47:34.516Z,7.45
2019-04-01T03:50:03.161Z,7.48
2019-04-01T03:52:31.778Z,7.42
2019-04-01T03:55:00.551Z,7.39
2019-04-01T03:57:29.214Z,7.30
2019-04-01T03:59:57.867Z,7.23
2019-04-01T04:02:26.479Z,7.25
2019-04-01T04:04:55.119Z,7.25
2019-04-01T04:07:23.735Z,7.14
2019-04-01T04:09:52.352Z,7.13
2019-04-01T04:12:21.058Z,7.13
2019-04-01T04:14:51.527Z,7.09
2019-04-01T04:17:20.081Z,7.09
2019-04-01T04:19:48.744Z,6.99
2019-04-01T04:22:17.357Z,7.03
2019-04-01T04:24:46.070Z,6.98
2019-04-01T04:27:14.688Z,6.96
2019-04-01T04:29:43.334Z,6.97
2019-04-01T04:32:12.051Z,6.95
2019-04-01T04:34:40.653Z,6.94
2019-04-01T04:37:09.380Z,6.92
2019-04-01T04:39:38.002Z,6.96
2019-04-01T04:42:06.641Z,6.96
2019-04-01T04:44:35.296Z,6.86
2019-04-01T04:47:04.039Z,6.79
2019-04-01T04:49:32.698Z,6.69
2019-04-01T04:52:04.482Z,6.76
2019-04-01T04:54:31.726Z,6.83
2019-04-01T04:57:00.429Z,6.78
2019-04-01T04:59:29.094Z,6.78
2019-04-01T05:01:57.723Z,6.76
2019-04-01T05:04:26.327Z,6.75
2019-04-01T05:06:55.059Z,6.83
2019-04-01T05:09:23.742Z,6.79
2019-04-01T05:11:52.521Z,6.72
2019-04-01T05:14:21.140Z,6.62
2019-04-01T05:16:49.951Z,6.59
2019-04-01T05:19:18.605Z,6.73
2019-04-01T05:21:47.289Z,6.66
2019-04-01T05:24:16.602Z,6.68
2019-04-01T05:26:45.671Z,6.64
2019-04-01T05:29:15.652Z,6.72
2019-04-01T05:31:46.721Z,6.68
2019-04-01T05:34:15.634Z,6.71
2019-04-01T05:36:44.380Z,6.72
2019-04-01T05:39:13.909Z,6.74
2019-04-01T05:41:42.533Z,6.79
2019-04-01T05:44:11.242Z,6.75
2019-04-01T05:46:39.959Z,6.78
2019-04-01T05:49:08.677Z,6.72
2019-04-01T05:51:37.368Z,6.64
2019-04-01T05:54:06.070Z,6.72
2019-04-01T05:56:34.805Z,6.90
2019-04-01T05:59:03.631Z,6.90
2019-04-01T06:01:37.289Z,6.90
2019-04-01T06:04:06.112Z,6.87
2019-04-01T06:06:34.771Z,6.94
2019-04-01T06:09:05.435Z,6.98
2019-04-01T06:11:34.165Z,6.99
2019-04-01T06:14:02.879Z,7.11
2019-04-01T06:16:31.525Z,7.10
2019-04-01T06:19:00.161Z,7.13
2019-04-01T06:21:28.969Z,7.17
2019-04-01T06:23:57.696Z,7.23
2019-04-01T06:26:26.343Z,7.25
2019-04-01T06:28:55.062Z,7.26
2019-04-01T06:31:23.756Z,7.40
2019-04-01T06:33:52.469Z,7.36
2019-04-01T06:36:21.624Z,7.41
2019-04-01T06:38:50.370Z,7.49
2019-04-01T06:41:19.072Z,7.45
2019-04-01T06:43:47.792Z,7.49
2019-04-01T06:46:16.412Z,7.54
2019-04-01T06:48:45.128Z,7.61
2019-04-01T06:51:13.839Z,7.64
2019-04-01T06:53:43.460Z,7.64
2019-04-01T06:56:12.177Z,7.67
2019-04-01T06:58:40.887Z,7.56
2019-04-01T07:01:09.647Z,7.57
2019-04-01T07:03:38.458Z,7.66
2019-04-01T07:06:07.287Z,7.68
2019-04-01T07:08:35.933Z,7.68
2019-04-01T07:11:04.680Z,7.78
2019-04-01T07:13:33.507Z,7.74
2019-04-01T07:16:15.524Z,7.73
2019-04-01T07:18:35.897Z,7.80
2019-04-01T07:21:04.622Z,7.83
2019-04-01T07:23:33.317Z,7.89
2019-04-01T07:26:01.968Z,8.03
2019-04-01T07:28:30.657Z,8.14
2019-04-01T07:31:02.856Z,8.30
2019-04-01T07:33:31.550Z,8.28
2019-04-01T07:36:00.241Z,8.36
2019-04-01T07:38:28.874Z,8.45
2019-04-01T07:40:59.243Z,8.49
2019-04-01T07:43:27.892Z,8.52
2019-04-01T07:45:59.916Z,8.53
2019-04-01T07:48:26.949Z,8.61
2019-04-01T07:50:55.679Z,8.61
2019-04-01T07:53:24.355Z,8.63
2019-04-01T07:55:53.180Z,8.66
2019-04-01T07:58:21.859Z,8.68
2019-04-01T08:00:50.487Z,8.69
2019-04-01T08:03:19.199Z,8.68
2019-04-01T08:05:47.902Z,8.82
2019-04-01T08:08:16.607Z,8.95
2019-04-01T08:10:45.591Z,9.01
2019-04-01T08:13:14.354Z,9.06
2019-04-01T08:15:43.048Z,9.14
2019-04-01T08:18:11.788Z,9.17
2019-04-01T08:20:40.533Z,9.22
2019-04-01T08:23:09.227Z,9.30
2019-04-01T08:25:37.971Z,9.38
2019-04-01T08:28:06.673Z,9.44
2019-04-01T08:30:35.363Z,9.52
2019-04-01T08:33:04.052Z,9.64
2019-04-01T08:35:32.737Z,9.68
2019-04-01T08:38:01.446Z,9.66
2019-04-01T08:40:30.065Z,9.70
2019-04-01T08:42:58.715Z,9.81
2019-04-01T08:45:27.405Z,9.87
2019-04-01T08:47:56.118Z,9.99
2019-04-01T08:50:24.840Z,10.07
2019-04-01T08:52:53.558Z,10.19
2019-04-01T08:55:22.180Z,10.25
2019-04-01T08:57:50.903Z,10.29
2019-04-01T09:00:19.629Z,10.40
2019-04-01T09:02:48.262Z,10.42
2019-04-01T09:05:16.891Z,10.43
2019-04-01T09:07:45.531Z,10.51
2019-04-01T09:10:14.320Z,10.64
2019-04-01T09:12:42.941Z,10.64
2019-04-01T09:15:12.360Z,10.71
2019-04-01T09:17:41.349Z,10.84
2019-04-01T09:20:10.046Z,10.82
2019-04-01T09:22:38.681Z,10.85
2019-04-01T09:25:07.342Z,10.90
2019-04-01T09:27:36.042Z,11.01
2019-04-01T09:30:05.991Z,11.11
2019-04-01T09:32:34.711Z,11.25
2019-04-01T09:35:03.761Z,11.36
2019-04-01T09:37:32.469Z,11.46
2019-04-01T09:40:01.125Z,11.56
2019-04-01T09:42:29.745Z,11.58
2019-04-01T09:44:58.415Z,11.66
2019-04-01T09:47:27.063Z,11.79
2019-04-01T09:49:55.816Z,11.77
2019-04-01T09:52:24.503Z,11.85
2019-04-01T09:54:53.157Z,11.97
2019-04-01T09:57:21.795Z,12.06
2019-04-01T09:59:50.460Z,12.04
2019-04-01T10:02:31.131Z,12.07
2019-04-01T10:04:49.691Z,12.19
2019-04-01T10:07:18.424Z,12.25
2019-04-01T10:09:47.199Z,12.33
2019-04-01T10:12:15.902Z,12.38
2019-04-01T10:14:44.712Z,12.48
2019-04-01T10:17:13.450Z,12.47
2019-04-01T10:19:42.145Z,12.65
2019-04-01T10:22:11.041Z,12.70
2019-04-01T10:24:40.265Z,12.77
2019-04-01T10:27:09.010Z,12.78
2019-04-01T10:29:37.629Z,12.74
2019-04-01T10:32:06.341Z,12.87
2019-04-01T10:34:34.985Z,13.00
2019-04-01T10:37:03.635Z,13.07
2019-04-01T10:39:32.255Z,13.26
2019-04-01T10:42:01.051Z,13.38
2019-04-01T10:44:29.704Z,13.48
2019-04-01T10:46:58.593Z,13.61
2019-04-01T10:49:27.663Z,13.58
2019-04-01T10:51:56.426Z,13.61
2019-04-01T10:54:25.134Z,13.67
2019-04-01T10:56:53.785Z,13.69
2019-04-01T10:59:22.416Z,13.74
2019-04-01T11:01:51.134Z,13.78
2019-04-01T11:04:19.754Z,13.86
2019-04-01T11:06:48.420Z,14.02
2019-04-01T11:09:17.023Z,14.04
2019-04-01T11:11:45.718Z,14.16
2019-04-01T11:14:14.436Z,14.32
2019-04-01T11:16:43.119Z,14.23
2019-04-01T11:19:11.765Z,14.28
2019-04-01T11:21:40.509Z,14.39
2019-04-01T11:24:09.224Z,14.36
2019-04-01T11:26:38.228Z,14.37
2019-04-01T11:29:06.954Z,14.40
2019-04-01T11:31:35.668Z,14.52
2019-04-01T11:34:04.446Z,14.71
2019-04-01T11:36:33.199Z,14.78
2019-04-01T11:39:01.842Z,14.83
2019-04-01T11:41:30.552Z,14.97
2019-04-01T11:43:59.149Z,14.94
2019-04-01T11:46:27.924Z,14.99
2019-04-01T11:48:56.629Z,15.12
2019-04-01T11:51:32.789Z,15.13
2019-04-01T11:53:55.674Z,15.25
2019-04-01T11:56:26.572Z,15.36
2019-04-01T11:58:56.720Z,15.43
2019-04-01T12:01:25.377Z,15.48
2019-04-01T12:03:54.111Z,15.49
2019-04-01T12:06:22.760Z,15.53
2019-04-01T12:08:51.455Z,15.57
2019-04-01T12:11:20.095Z,15.64
2019-04-01T12:13:48.756Z,15.64
2019-04-01T12:16:17.388Z,15.71
2019-04-01T12:18:46.109Z,15.71
2019-04-01T12:21:15.015Z,15.85
2019-04-01T12:23:43.731Z,15.98
2019-04-01T12:26:15.314Z,16.05
2019-04-01T12:28:43.636Z,16.15
2019-04-01T12:31:12.945Z,16.35
2019-04-01T12:33:42.001Z,16.43
2019-04-01T12:36:11.850Z,16.43
2019-04-01T12:38:40.816Z,16.47
2019-04-01T12:41:09.448Z,16.40
2019-04-01T12:43:38.091Z,16.73
2019-04-01T12:46:08.785Z,16.79
2019-04-01T12:48:39.367Z,16.74
2019-04-01T12:51:08.138Z,16.73
2019-04-01T12:53:36.792Z,16.74
2019-04-01T12:56:05.694Z,16.73
2019-04-01T12:58:34.336Z,16.76
2019-04-01T13:01:02.992Z,16.78
2019-04-01T13:03:31.654Z,16.81
2019-04-01T13:06:00.281Z,16.95
2019-04-01T13:08:28.911Z,16.82
2019-04-01T13:10:57.551Z,16.98
2019-04-01T13:13:26.190Z,16.98
2019-04-01T13:15:54.924Z,17.03
2019-04-01T13:18:26.102Z,17.07
2019-04-01T13:20:54.752Z,17.18
2019-04-01T13:23:23.462Z,17.21
2019-04-01T13:25:52.213Z,17.23
2019-04-01T13:28:20.925Z,17.28
2019-04-01T13:30:49.562Z,17.28
2019-04-01T13:33:18.298Z,17.24
2019-04-01T13:35:46.942Z,17.32
2019-04-01T13:38:15.763Z,17.32
2019-04-01T13:40:44.730Z,17.41
2019-04-01T13:43:16.847Z,17.46
2019-04-01T13:45:43.803Z,17.46
2019-04-01T13:48:12.564Z,17.47
2019-04-01T13:50:41.410Z,17.49
2019-04-01T13:53:10.021Z,17.49
2019-04-01T13:55:38.712Z,17.53
2019-04-01T13:58:07.345Z,17.59
2019-04-01T14:00:35.998Z,17.56
2019-04-01T14:03:04.622Z,17.54
2019-04-01T14:05:33.303Z,17.53
2019-04-01T14:08:05.631Z,17.72
2019-04-01T14:10:32.306Z,17.75
2019-04-01T14:13:00.925Z,17.76
2019-04-01T14:15:29.642Z,17.86
2019-04-01T14:17:58.279Z,17.88
2019-04-01T14:20:26.903Z,17.90
2019-04-01T14:22:55.560Z,17.88
2019-04-01T14:25:24.197Z,17.88
2019-04-01T14:27:52.846Z,17.90
2019-04-01T14:30:21.645Z,17.87
2019-04-01T14:32:50.348Z,17.86
2019-04-01T14:35:19.019Z,17.89
2019-04-01T14:37:47.666Z,17.88
2019-04-01T14:40:17.968Z,17.95
2019-04-01T14:42:47.188Z,17.96
2019-04-01T14:45:15.919Z,17.99
2019-04-01T14:47:56.651Z,17.95
2019-04-01T14:50:15.425Z,18.06
2019-04-01T14:52:44.058Z,18.06
2019-04-01T14:55:12.794Z,18.01
2019-04-01T14:57:41.459Z,18.01
2019-04-01T15:00:14.701Z,18.10
2019-04-01T15:02:43.498Z,18.05
2019-04-01T15:05:12.516Z,18.10
2019-04-01T15:07:41.233Z,18.15
2019-04-01T15:10:10.057Z,18.15
2019-04-01T15:12:39.481Z,18.13
2019-04-01T15:15:08.576Z,18.13
2019-04-01T15:17:38.647Z,18.19
2019-04-01T15:20:07.406Z,18.10
2019-04-01T15:22:36.125Z,18.21
2019-04-01T15:25:05.091Z,18.18
2019-04-01T15:27:33.922Z,18.18
2019-04-01T15:30:02.548Z,18.26
2019-04-01T15:32:31.179Z,18.18
2019-04-01T15:34:59.836Z,18.11
2019-04-01T15:37:31.931Z,18.11
2019-04-01T15:39:58.829Z,18.14
2019-04-01T15:42:27.452Z,18.18
2019-04-01T15:44:56.104Z,18.09
2019-04-01T15:47:24.780Z,18.09
2019-04-01T15:49:53.562Z,18.03
2019-04-01T15:52:22.264Z,18.02
2019-04-01T15:54:50.958Z,18.02
2019-04-01T15:57:19.657Z,18.01
2019-04-01T15:59:48.272Z,17.97
2019-04-01T16:02:16.981Z,18.00
2019-04-01T16:04:46.334Z,17.99
2019-04-01T16:07:15.072Z,18.10
2019-04-01T16:09:43.842Z,18.10
2019-04-01T16:12:12.550Z,18.10
2019-04-01T16:14:41.356Z,17.99
2019-04-01T16:17:09.920Z,17.99
2019-04-01T16:19:38.592Z,18.06
2019-04-01T16:22:07.399Z,17.96
2019-04-01T16:24:36.386Z,17.93
2019-04-01T16:27:05.228Z,17.96
2019-04-01T16:29:33.970Z,17.96
2019-04-01T16:32:02.613Z,17.89
2019-04-01T16:34:31.752Z,17.83
2019-04-01T16:37:00.395Z,17.84
2019-04-01T16:39:29.026Z,17.85
2019-04-01T16:41:57.690Z,17.82
2019-04-01T16:44:26.375Z,17.82
2019-04-01T16:46:55.025Z,17.84
2019-04-01T16:49:23.649Z,17.80
2019-04-01T16:51:53.442Z,17.78
2019-04-01T16:54:22.148Z,17.78
2019-04-01T16:56:50.903Z,17.73
2019-04-01T16:59:19.518Z,17.67
2019-04-01T17:01:48.253Z,17.81
2019-04-01T17:04:17.231Z,17.81
2019-04-01T17:06:46.145Z,17.70
2019-04-01T17:09:14.840Z,17.70
2019-04-01T17:11:43.557Z,17.70
2019-04-01T17:14:12.181Z,17.57
2019-04-01T17:16:40.910Z,17.53
2019-04-01T17:19:09.553Z,17.46
2019-04-01T17:21:38.285Z,17.46
2019-04-01T17:24:07.017Z,17.48
2019-04-01T17:27:10.042Z,17.42
2019-04-01T17:30:03.850Z,17.28
2019-04-01T17:32:36.023Z,17.28
2019-04-01T17:35:18.729Z,17.27
2019-04-01T17:37:51.761Z,17.20
2019-04-01T17:40:23.685Z,17.30
2019-04-01T17:42:54.375Z,17.21
2019-04-01T17:45:45.304Z,17.11
2019-04-01T17:48:38.338Z,17.20
2019-04-01T17:51:13.327Z,17.14
2019-04-01T17:53:45.967Z,17.02
2019-04-01T17:56:18.188Z,16.92
2019-04-01T17:58:50.641Z,16.79
2019-04-01T18:01:24.115Z,16.79
2019-04-01T18:03:57.544Z,16.59
2019-04-01T18:06:29.823Z,16.59
2019-04-01T18:09:05.667Z,16.55
2019-04-01T18:11:37.022Z,16.51
2019-04-01T18:14:08.213Z,16.39
2019-04-01T18:16:40.724Z,16.27
2019-04-01T18:19:16.870Z,16.27
2019-04-01T18:21:47.004Z,16.34
2019-04-01T18:24:23.002Z,16.19
2019-04-01T18:26:58.686Z,16.19
2019-04-01T18:29:37.962Z,16.09
2019-04-01T18:32:08.451Z,16.09
2019-04-01T18:34:42.905Z,15.87
2019-04-01T18:37:16.010Z,15.85
2019-04-01T18:40:01.065Z,15.83
2019-04-01T18:42:32.819Z,15.83
2019-04-01T18:45:08.431Z,15.70
2019-04-01T18:47:43.941Z,15.66
2019-04-01T18:50:18.677Z,15.65
2019-04-01T18:52:57.062Z,15.58
2019-04-01T18:55:36.921Z,15.47
2019-04-01T18:58:07.485Z,15.40
2019-04-01T19:00:47.750Z,15.33
2019-04-01T19:03:23.988Z,15.28
2019-04-01T19:06:23.011Z,15.18
2019-04-01T19:09:08.756Z,15.08
2019-04-01T19:11:43.497Z,15.06
2019-04-01T19:14:20.374Z,15.03
2019-04-01T19:16:53.042Z,14.81
2019-04-01T19:19:23.984Z,14.76
2019-04-01T19:21:55.654Z,14.77
2019-04-01T19:24:25.847Z,14.84
2019-04-01T19:26:57.127Z,14.74
2019-04-01T19:29:48.722Z,14.72
2019-04-01T19:32:18.915Z,14.62
2019-04-01T19:34:54.392Z,14.46
2019-04-01T19:37:29.298Z,14.43
2019-04-01T19:40:05.280Z,14.40
2019-04-01T19:42:39.665Z,14.28
2019-04-01T19:45:12.312Z,14.18
2019-04-01T19:47:57.428Z,14.04
2019-04-01T19:50:33.151Z,13.99
2019-04-01T19:53:08.036Z,13.98
2019-04-01T19:55:45.399Z,14.01
2019-04-01T19:58:37.185Z,13.99
2019-04-01T20:01:14.323Z,13.89
2019-04-01T20:03:47.945Z,13.87
2019-04-01T20:06:19.274Z,13.73
2019-04-01T20:08:52.003Z,13.64
2019-04-01T20:11:27.183Z,13.65
2019-04-01T20:14:02.861Z,13.63
2019-04-01T20:16:33.251Z,13.54
2019-04-01T20:19:12.773Z,13.49
2019-04-01T20:21:47.265Z,13.47
2019-04-01T20:24:36.519Z,13.38
2019-04-01T20:27:10.958Z,13.27
2019-04-01T20:29:41.719Z,13.15
2019-04-01T20:32:29.386Z,13.14
2019-04-01T20:35:02.088Z,13.10
2019-04-01T20:37:32.350Z,13.04
2019-04-01T20:40:01.830Z,13.03
2019-04-01T20:42:35.279Z,12.94
2019-04-01T20:45:04.918Z,12.81
2019-04-01T20:47:39.834Z,12.82
2019-04-01T20:50:18.862Z,12.79
2019-04-01T20:52:50.778Z,12.71
2019-04-01T20:55:30.997Z,12.74
2019-04-01T20:58:10.803Z,12.56
2019-04-01T21:00:43.427Z,12.43
2019-04-01T21:03:19.605Z,12.54
2019-04-01T21:05:53.166Z,12.56
2019-04-01T21:08:28.381Z,12.51
2019-04-01T21:11:01.261Z,12.49
2019-04-01T21:13:32.133Z,12.48
2019-04-01T21:16:34.811Z,12.40
2019-04-01T21:19:06.397Z,12.31
2019-04-01T21:21:40.937Z,12.38
2019-04-01T21:24:12.515Z,12.26
2019-04-01T21:27:00.636Z,12.28
2019-04-01T21:29:40.044Z,12.17
2019-04-01T21:32:29.123Z,12.14
2019-04-01T21:35:01.012Z,12.20
2019-04-01T21:37:35.002Z,11.99
2019-04-01T21:40:12.711Z,12.01
2019-04-01T21:42:54.959Z,11.95
2019-04-01T21:45:26.907Z,11.91
2019-04-01T21:47:57.910Z,11.80
2019-04-01T21:50:29.715Z,11.83
2019-04-01T21:53:06.034Z,11.85
2019-04-01T21:55:42.478Z,11.77
2019-04-01T21:58:16.197Z,11.73
2019-04-01T22:00:54.959Z,11.83
2019-04-01T22:03:25.074Z,11.67
2019-04-01T22:05:59.553Z,11.79
2019-04-01T22:08:41.367Z,11.66
2019-04-01T22:11:31.656Z,11.68
2019-04-01T22:14:06.573Z,11.67
2019-04-01T22:16:42.197Z,11.63
2019-04-01T22:19:16.519Z,11.59
2019-04-01T22:21:49.984Z,11.50
2019-04-01T22:24:25.653Z,11.61
2019-04-01T22:26:56.694Z,11.55
2019-04-01T22:29:34.915Z,11.60
2019-04-01T22:32:06.222Z,11.55
2019-04-01T22:34:38.232Z,11.41
2019-04-01T22:37:09.099Z,11.44
2019-04-01T22:39:45.392Z,11.45
2019-04-01T22:42:15.188Z,11.42
2019-04-01T22:44:45.087Z,11.41
2019-04-01T22:47:16.305Z,11.43
2019-04-01T22:49:48.258Z,11.39
2019-04-01T22:52:16.861Z,11.33
2019-04-01T22:54:45.517Z,11.17
2019-04-01T22:57:14.210Z,11.28
2019-04-01T22:59:42.844Z,11.29
2019-04-01T23:02:13.281Z,11.26
2019-04-01T23:04:41.826Z,11.14
2019-04-01T23:07:10.467Z,11.12
2019-04-01T23:09:39.106Z,11.11
2019-04-01T23:12:07.746Z,11.13
2019-04-01T23:14:36.386Z,11.14
2019-04-01T23:17:05.012Z,11.10
2019-04-01T23:19:34.478Z,11.15
2019-04-01T23:22:03.681Z,10.99
2019-04-01T23:24:32.368Z,10.99
2019-04-01T23:27:01.117Z,10.88
2019-04-01T23:29:29.790Z,10.84
2019-04-01T23:31:58.404Z,10.92
2019-04-01T23:34:27.037Z,10.91
2019-04-01T23:36:55.733Z,10.78
2019-04-01T23:41:51.953Z,10.84
2019-04-01T23:44:20.565Z,10.81
2019-04-01T23:46:49.237Z,10.67
2019-04-01T23:49:17.849Z,10.83
2019-04-01T23:51:46.507Z,10.85
2019-04-01T23:54:15.126Z,10.94
2019-04-01T23:56:43.800Z,10.84
2019-04-01T23:59:12.435Z,10.77
